This is the latest recevied weather packets stored in our database for station/object OE5ERN-10. If no packets are shown the sender has not sent any weather packets the latest 10 day(s).
| Time | Temp. | Humidity | Pressure | Rain* | Wind** | Luminosity | Snow |
|---|---|---|---|---|---|---|---|
| 1777272949 | 30.56° C | 22% | 1026.7 hPa | 0 mm | - | - | - |
| 1777272049 | 28.33° C | 24% | 1026.8 hPa | 0 mm | - | - | - |
| 1777271149 | 27.78° C | 24% | 1026.7 hPa | 0 mm | - | - | - |
| 1777270250 | 27.78° C | 26% | 1026.6 hPa | 0 mm | - | - | - |
| 1777269350 | 23.89° C | 31% | 1026.8 hPa | 0 mm | - | - | - |
| 1777268450 | 18.89° C | 41% | 1026.8 hPa | 0 mm | - | - | - |
| 1777267550 | 7.78° C | 64% | 1026.8 hPa | 0 mm | - | - | - |
| 1777266650 | 6.11° C | 62% | 1026.7 hPa | 0 mm | - | - | - |
| 1777265750 | 5.56° C | 64% | 1026.5 hPa | 0 mm | - | - | - |
| 1777264850 | 4.44° C | 62% | 1026.5 hPa | 0 mm | - | - | - |
| 1777263950 | 3.89° C | 61% | 1026.4 hPa | 0 mm | - | - | - |
| 1777263050 | 4.44° C | 60% | 1026.3 hPa | 0 mm | - | - | - |
| 1777262150 | 5° C | 59% | 1026.4 hPa | 0 mm | - | - | - |
| 1777261250 | 5° C | 58% | 1026.4 hPa | 0 mm | - | - | - |
| 1777260350 | 5.56° C | 58% | 1026.3 hPa | 0 mm | - | - | - |
| 1777259450 | 5° C | 58% | 1026.4 hPa | 0 mm | - | - | - |
| 1777258550 | 5° C | 58% | 1026.4 hPa | 0 mm | - | - | - |
| 1777257650 | 5.56° C | 58% | 1026.4 hPa | 0 mm | - | - | - |
| 1777256750 | 5.56° C | 57% | 1026.4 hPa | 0 mm | - | - | - |
| 1777255850 | 5.56° C | 57% | 1026.4 hPa | 0 mm | - | - | - |
| 1777254950 | 5.56° C | 57% | 1026.4 hPa | 0 mm | - | - | - |
| 1777254050 | 6.11° C | 57% | 1026.5 hPa | 0 mm | - | - | - |
| 1777253150 | 5.56° C | 57% | 1026.5 hPa | 0 mm | - | - | - |
| 1777252250 | 5.56° C | 57% | 1026.6 hPa | 0 mm | - | - | - |
| 1777251350 | 5.56° C | 56% | 1026.7 hPa | 0 mm | - | - | - |
* Rain latest hour (hover to see other rain measurements)
** Current wind speed in m/s (hover to see current wind gust speed)